sensor_id;sensor_type;location;lat;lon;timestamp;P1;durP1;ratioP1;P2;durP2;ratioP2
48765;SDS011;65794;51.836;5.002;2023-01-24T00:01:54;28.63;;;12.88;;
48765;SDS011;65794;51.836;5.002;2023-01-24T00:04:21;29.30;;;13.00;;
48765;SDS011;65794;51.836;5.002;2023-01-24T00:06:48;28.70;;;12.75;;
48765;SDS011;65794;51.836;5.002;2023-01-24T00:09:15;29.45;;;12.35;;
48765;SDS011;65794;51.836;5.002;2023-01-24T00:11:42;26.65;;;12.10;;
48765;SDS011;65794;51.836;5.002;2023-01-24T00:14:09;25.33;;;12.10;;
48765;SDS011;65794;51.836;5.002;2023-01-24T00:16:35;26.55;;;11.82;;
48765;SDS011;65794;51.836;5.002;2023-01-24T00:19:02;28.67;;;13.20;;
48765;SDS011;65794;51.836;5.002;2023-01-24T00:21:29;31.63;;;12.93;;
48765;SDS011;65794;51.836;5.002;2023-01-24T00:23:56;30.52;;;12.38;;
48765;SDS011;65794;51.836;5.002;2023-01-24T00:26:23;27.27;;;12.13;;
48765;SDS011;65794;51.836;5.002;2023-01-24T00:28:51;30.85;;;12.98;;
48765;SDS011;65794;51.836;5.002;2023-01-24T00:31:17;30.20;;;12.82;;
48765;SDS011;65794;51.836;5.002;2023-01-24T00:33:45;27.23;;;11.35;;
48765;SDS011;65794;51.836;5.002;2023-01-24T00:36:11;28.40;;;11.90;;
48765;SDS011;65794;51.836;5.002;2023-01-24T00:38:38;26.85;;;11.80;;
48765;SDS011;65794;51.836;5.002;2023-01-24T00:41:05;30.42;;;11.95;;
48765;SDS011;65794;51.836;5.002;2023-01-24T00:43:32;27.95;;;12.27;;
48765;SDS011;65794;51.836;5.002;2023-01-24T00:45:59;30.35;;;12.60;;
48765;SDS011;65794;51.836;5.002;2023-01-24T00:48:27;26.73;;;12.13;;
48765;SDS011;65794;51.836;5.002;2023-01-24T00:50:53;29.40;;;13.10;;
48765;SDS011;65794;51.836;5.002;2023-01-24T00:53:21;25.77;;;11.18;;
48765;SDS011;65794;51.836;5.002;2023-01-24T00:55:47;30.10;;;12.45;;
48765;SDS011;65794;51.836;5.002;2023-01-24T00:58:15;29.98;;;12.20;;
48765;SDS011;65794;51.836;5.002;2023-01-24T01:00:42;26.63;;;11.95;;
48765;SDS011;65794;51.836;5.002;2023-01-24T01:03:13;26.27;;;11.70;;
48765;SDS011;65794;51.836;5.002;2023-01-24T01:05:41;32.10;;;12.10;;
48765;SDS011;65794;51.836;5.002;2023-01-24T01:08:09;30.02;;;12.02;;
48765;SDS011;65794;51.836;5.002;2023-01-24T01:10:39;29.83;;;12.77;;
48765;SDS011;65794;51.836;5.002;2023-01-24T01:13:06;28.80;;;12.45;;
48765;SDS011;65794;51.836;5.002;2023-01-24T01:15:33;29.92;;;13.10;;
48765;SDS011;65794;51.836;5.002;2023-01-24T01:18:02;25.23;;;12.10;;
48765;SDS011;65794;51.836;5.002;2023-01-24T01:20:29;29.48;;;12.35;;
48765;SDS011;65794;51.836;5.002;2023-01-24T01:22:56;23.77;;;11.38;;
48765;SDS011;65794;51.836;5.002;2023-01-24T01:25:22;29.48;;;12.32;;
48765;SDS011;65794;51.836;5.002;2023-01-24T01:27:50;29.25;;;12.02;;
48765;SDS011;65794;51.836;5.002;2023-01-24T01:30:16;27.73;;;11.88;;
48765;SDS011;65794;51.836;5.002;2023-01-24T01:32:44;29.70;;;12.60;;
48765;SDS011;65794;51.836;5.002;2023-01-24T01:35:11;29.00;;;13.05;;
48765;SDS011;65794;51.836;5.002;2023-01-24T01:37:38;26.98;;;11.95;;
48765;SDS011;65794;51.836;5.002;2023-01-24T01:40:05;29.23;;;12.30;;
48765;SDS011;65794;51.836;5.002;2023-01-24T01:42:49;27.33;;;12.50;;
48765;SDS011;65794;51.836;5.002;2023-01-24T01:48:04;28.90;;;12.15;;
48765;SDS011;65794;51.836;5.002;2023-01-24T01:50:33;25.80;;;12.00;;
48765;SDS011;65794;51.836;5.002;2023-01-24T01:53:03;26.15;;;11.43;;
48765;SDS011;65794;51.836;5.002;2023-01-24T01:55:31;30.25;;;12.00;;
48765;SDS011;65794;51.836;5.002;2023-01-24T01:57:59;23.90;;;11.27;;
48765;SDS011;65794;51.836;5.002;2023-01-24T02:00:26;27.63;;;12.23;;
48765;SDS011;65794;51.836;5.002;2023-01-24T02:03:02;28.23;;;12.57;;
48765;SDS011;65794;51.836;5.002;2023-01-24T02:05:49;26.83;;;11.60;;
48765;SDS011;65794;51.836;5.002;2023-01-24T02:08:19;31.10;;;13.23;;
48765;SDS011;65794;51.836;5.002;2023-01-24T02:10:47;30.05;;;13.07;;
48765;SDS011;65794;51.836;5.002;2023-01-24T02:13:41;29.40;;;12.27;;
48765;SDS011;65794;51.836;5.002;2023-01-24T02:16:11;34.03;;;13.23;;
48765;SDS011;65794;51.836;5.002;2023-01-24T02:18:39;30.70;;;13.73;;
48765;SDS011;65794;51.836;5.002;2023-01-24T02:21:08;27.92;;;12.50;;
48765;SDS011;65794;51.836;5.002;2023-01-24T02:23:42;31.90;;;13.20;;
48765;SDS011;65794;51.836;5.002;2023-01-24T02:26:13;27.60;;;12.02;;
48765;SDS011;65794;51.836;5.002;2023-01-24T02:28:45;30.85;;;13.50;;
48765;SDS011;65794;51.836;5.002;2023-01-24T02:31:13;29.45;;;12.90;;
48765;SDS011;65794;51.836;5.002;2023-01-24T02:33:40;30.73;;;13.70;;
48765;SDS011;65794;51.836;5.002;2023-01-24T02:36:15;31.75;;;13.50;;
48765;SDS011;65794;51.836;5.002;2023-01-24T02:38:44;33.45;;;13.18;;
48765;SDS011;65794;51.836;5.002;2023-01-24T02:41:13;31.00;;;13.02;;
48765;SDS011;65794;51.836;5.002;2023-01-24T02:43:41;30.30;;;13.85;;
48765;SDS011;65794;51.836;5.002;2023-01-24T02:46:10;36.03;;;14.40;;
48765;SDS011;65794;51.836;5.002;2023-01-24T02:48:37;29.65;;;12.73;;
48765;SDS011;65794;51.836;5.002;2023-01-24T02:51:04;30.73;;;12.60;;
48765;SDS011;65794;51.836;5.002;2023-01-24T02:53:50;30.48;;;12.25;;
48765;SDS011;65794;51.836;5.002;2023-01-24T02:56:16;28.83;;;12.80;;
48765;SDS011;65794;51.836;5.002;2023-01-24T02:59:02;28.55;;;12.23;;
48765;SDS011;65794;51.836;5.002;2023-01-24T03:01:31;26.23;;;11.63;;
48765;SDS011;65794;51.836;5.002;2023-01-24T03:03:58;26.73;;;11.70;;
48765;SDS011;65794;51.836;5.002;2023-01-24T03:06:26;27.83;;;11.73;;
48765;SDS011;65794;51.836;5.002;2023-01-24T03:08:53;27.15;;;12.38;;
48765;SDS011;65794;51.836;5.002;2023-01-24T03:11:34;26.65;;;12.13;;
48765;SDS011;65794;51.836;5.002;2023-01-24T03:14:01;28.90;;;12.13;;
48765;SDS011;65794;51.836;5.002;2023-01-24T03:16:47;29.10;;;11.83;;
48765;SDS011;65794;51.836;5.002;2023-01-24T03:19:33;30.00;;;12.23;;
48765;SDS011;65794;51.836;5.002;2023-01-24T03:22:18;27.90;;;12.32;;
48765;SDS011;65794;51.836;5.002;2023-01-24T03:25:04;27.70;;;11.75;;
48765;SDS011;65794;51.836;5.002;2023-01-24T03:27:50;29.75;;;12.45;;
48765;SDS011;65794;51.836;5.002;2023-01-24T03:30:36;30.10;;;11.45;;
48765;SDS011;65794;51.836;5.002;2023-01-24T03:33:21;28.95;;;11.85;;
48765;SDS011;65794;51.836;5.002;2023-01-24T03:36:10;30.75;;;11.80;;
48765;SDS011;65794;51.836;5.002;2023-01-24T03:38:49;28.63;;;12.45;;
48765;SDS011;65794;51.836;5.002;2023-01-24T03:41:35;33.83;;;12.93;;
48765;SDS011;65794;51.836;5.002;2023-01-24T03:44:03;31.50;;;12.80;;
48765;SDS011;65794;51.836;5.002;2023-01-24T03:46:31;30.23;;;13.65;;
48765;SDS011;65794;51.836;5.002;2023-01-24T03:48:57;28.70;;;12.77;;
48765;SDS011;65794;51.836;5.002;2023-01-24T03:51:32;30.77;;;12.40;;
48765;SDS011;65794;51.836;5.002;2023-01-24T03:54:18;28.50;;;12.20;;
48765;SDS011;65794;51.836;5.002;2023-01-24T03:56:52;26.98;;;11.73;;
48765;SDS011;65794;51.836;5.002;2023-01-24T03:59:22;27.92;;;12.50;;
48765;SDS011;65794;51.836;5.002;2023-01-24T04:01:49;31.23;;;13.25;;
48765;SDS011;65794;51.836;5.002;2023-01-24T04:04:24;29.80;;;13.32;;
48765;SDS011;65794;51.836;5.002;2023-01-24T04:07:11;30.88;;;14.00;;
48765;SDS011;65794;51.836;5.002;2023-01-24T04:09:54;29.63;;;12.45;;
48765;SDS011;65794;51.836;5.002;2023-01-24T04:12:21;30.50;;;12.95;;
48765;SDS011;65794;51.836;5.002;2023-01-24T04:14:52;33.90;;;13.90;;
48765;SDS011;65794;51.836;5.002;2023-01-24T04:17:19;35.50;;;14.32;;
48765;SDS011;65794;51.836;5.002;2023-01-24T04:19:50;27.98;;;12.95;;
48765;SDS011;65794;51.836;5.002;2023-01-24T04:22:17;32.22;;;14.00;;
48765;SDS011;65794;51.836;5.002;2023-01-24T04:24:44;30.55;;;13.52;;
48765;SDS011;65794;51.836;5.002;2023-01-24T04:27:12;31.45;;;12.90;;
48765;SDS011;65794;51.836;5.002;2023-01-24T04:29:49;32.00;;;13.25;;
48765;SDS011;65794;51.836;5.002;2023-01-24T04:32:16;31.33;;;13.75;;
48765;SDS011;65794;51.836;5.002;2023-01-24T04:34:58;32.53;;;13.73;;
48765;SDS011;65794;51.836;5.002;2023-01-24T04:37:46;29.88;;;12.95;;
48765;SDS011;65794;51.836;5.002;2023-01-24T04:40:16;31.63;;;13.40;;
48765;SDS011;65794;51.836;5.002;2023-01-24T04:42:43;35.42;;;14.30;;
48765;SDS011;65794;51.836;5.002;2023-01-24T04:45:10;30.77;;;13.65;;
48765;SDS011;65794;51.836;5.002;2023-01-24T04:47:38;30.17;;;13.75;;
48765;SDS011;65794;51.836;5.002;2023-01-24T04:50:07;30.17;;;12.82;;
48765;SDS011;65794;51.836;5.002;2023-01-24T04:52:34;30.65;;;13.27;;
48765;SDS011;65794;51.836;5.002;2023-01-24T04:55:05;34.30;;;14.23;;
48765;SDS011;65794;51.836;5.002;2023-01-24T04:57:33;36.33;;;13.55;;
48765;SDS011;65794;51.836;5.002;2023-01-24T05:00:00;36.47;;;14.38;;
48765;SDS011;65794;51.836;5.002;2023-01-24T05:02:28;32.72;;;13.27;;
48765;SDS011;65794;51.836;5.002;2023-01-24T05:04:55;29.05;;;12.80;;
48765;SDS011;65794;51.836;5.002;2023-01-24T05:07:23;31.45;;;13.93;;
48765;SDS011;65794;51.836;5.002;2023-01-24T05:09:57;36.25;;;14.63;;
48765;SDS011;65794;51.836;5.002;2023-01-24T05:12:25;35.33;;;14.70;;
48765;SDS011;65794;51.836;5.002;2023-01-24T05:14:55;32.35;;;13.50;;
48765;SDS011;65794;51.836;5.002;2023-01-24T05:17:23;32.58;;;13.65;;
48765;SDS011;65794;51.836;5.002;2023-01-24T05:19:53;34.20;;;14.02;;
48765;SDS011;65794;51.836;5.002;2023-01-24T05:22:21;32.13;;;13.82;;
48765;SDS011;65794;51.836;5.002;2023-01-24T05:24:49;33.50;;;14.57;;
48765;SDS011;65794;51.836;5.002;2023-01-24T05:27:16;33.72;;;14.38;;
48765;SDS011;65794;51.836;5.002;2023-01-24T05:29:51;37.38;;;15.63;;
48765;SDS011;65794;51.836;5.002;2023-01-24T05:32:18;30.85;;;14.50;;
48765;SDS011;65794;51.836;5.002;2023-01-24T05:34:45;32.58;;;14.32;;
48765;SDS011;65794;51.836;5.002;2023-01-24T05:37:14;32.22;;;14.13;;
48765;SDS011;65794;51.836;5.002;2023-01-24T05:39:43;32.97;;;14.73;;
48765;SDS011;65794;51.836;5.002;2023-01-24T05:42:10;34.05;;;13.70;;
48765;SDS011;65794;51.836;5.002;2023-01-24T05:44:42;35.10;;;15.27;;
48765;SDS011;65794;51.836;5.002;2023-01-24T05:47:09;33.38;;;14.25;;
48765;SDS011;65794;51.836;5.002;2023-01-24T05:49:39;34.50;;;14.82;;
48765;SDS011;65794;51.836;5.002;2023-01-24T05:52:06;34.22;;;15.30;;
48765;SDS011;65794;51.836;5.002;2023-01-24T05:54:43;31.15;;;14.15;;
48765;SDS011;65794;51.836;5.002;2023-01-24T05:57:36;34.03;;;14.70;;
48765;SDS011;65794;51.836;5.002;2023-01-24T06:00:23;34.85;;;13.52;;
48765;SDS011;65794;51.836;5.002;2023-01-24T06:03:09;35.30;;;15.18;;
48765;SDS011;65794;51.836;5.002;2023-01-24T06:05:36;36.20;;;14.77;;
48765;SDS011;65794;51.836;5.002;2023-01-24T06:08:03;36.90;;;14.93;;
48765;SDS011;65794;51.836;5.002;2023-01-24T06:10:30;38.90;;;16.00;;
48765;SDS011;65794;51.836;5.002;2023-01-24T06:13:03;37.50;;;16.27;;
48765;SDS011;65794;51.836;5.002;2023-01-24T06:15:30;39.08;;;15.55;;
48765;SDS011;65794;51.836;5.002;2023-01-24T06:17:58;37.72;;;16.48;;
48765;SDS011;65794;51.836;5.002;2023-01-24T06:20:26;37.75;;;16.50;;
48765;SDS011;65794;51.836;5.002;2023-01-24T06:22:54;37.10;;;16.13;;
48765;SDS011;65794;51.836;5.002;2023-01-24T06:25:23;37.13;;;15.82;;
48765;SDS011;65794;51.836;5.002;2023-01-24T06:27:51;35.92;;;15.77;;
48765;SDS011;65794;51.836;5.002;2023-01-24T06:30:18;38.03;;;16.35;;
48765;SDS011;65794;51.836;5.002;2023-01-24T06:33:01;36.60;;;16.30;;
48765;SDS011;65794;51.836;5.002;2023-01-24T06:37:56;35.22;;;16.00;;
48765;SDS011;65794;51.836;5.002;2023-01-24T06:40:24;36.00;;;16.65;;
48765;SDS011;65794;51.836;5.002;2023-01-24T06:42:52;36.67;;;15.30;;
48765;SDS011;65794;51.836;5.002;2023-01-24T06:45:21;40.85;;;17.38;;
48765;SDS011;65794;51.836;5.002;2023-01-24T06:47:49;37.85;;;15.55;;
48765;SDS011;65794;51.836;5.002;2023-01-24T06:50:17;38.67;;;17.27;;
48765;SDS011;65794;51.836;5.002;2023-01-24T06:52:45;38.60;;;15.52;;
48765;SDS011;65794;51.836;5.002;2023-01-24T06:55:13;37.65;;;15.05;;
48765;SDS011;65794;51.836;5.002;2023-01-24T06:57:40;37.70;;;16.75;;
48765;SDS011;65794;51.836;5.002;2023-01-24T07:00:07;36.13;;;15.73;;
48765;SDS011;65794;51.836;5.002;2023-01-24T07:02:34;36.38;;;17.08;;
48765;SDS011;65794;51.836;5.002;2023-01-24T07:05:01;37.55;;;16.33;;
48765;SDS011;65794;51.836;5.002;2023-01-24T07:07:28;39.58;;;16.60;;
48765;SDS011;65794;51.836;5.002;2023-01-24T07:09:55;39.53;;;16.83;;
48765;SDS011;65794;51.836;5.002;2023-01-24T07:12:22;39.00;;;16.90;;
48765;SDS011;65794;51.836;5.002;2023-01-24T07:14:49;41.15;;;17.55;;
48765;SDS011;65794;51.836;5.002;2023-01-24T07:17:16;40.67;;;16.92;;
48765;SDS011;65794;51.836;5.002;2023-01-24T07:19:43;44.58;;;17.35;;
48765;SDS011;65794;51.836;5.002;2023-01-24T07:22:11;43.47;;;18.05;;
48765;SDS011;65794;51.836;5.002;2023-01-24T07:24:39;46.63;;;18.38;;
48765;SDS011;65794;51.836;5.002;2023-01-24T07:27:06;36.30;;;15.95;;
48765;SDS011;65794;51.836;5.002;2023-01-24T07:29:33;42.58;;;17.88;;
48765;SDS011;65794;51.836;5.002;2023-01-24T07:31:59;43.08;;;15.30;;
48765;SDS011;65794;51.836;5.002;2023-01-24T07:34:27;38.70;;;16.33;;
48765;SDS011;65794;51.836;5.002;2023-01-24T07:36:54;35.95;;;14.57;;
48765;SDS011;65794;51.836;5.002;2023-01-24T07:39:20;39.63;;;15.73;;
48765;SDS011;65794;51.836;5.002;2023-01-24T07:41:47;42.55;;;17.48;;
48765;SDS011;65794;51.836;5.002;2023-01-24T07:44:15;42.40;;;17.23;;
48765;SDS011;65794;51.836;5.002;2023-01-24T07:46:42;34.40;;;15.30;;
48765;SDS011;65794;51.836;5.002;2023-01-24T07:49:09;41.83;;;16.83;;
48765;SDS011;65794;51.836;5.002;2023-01-24T07:51:36;40.03;;;16.10;;
48765;SDS011;65794;51.836;5.002;2023-01-24T07:54:03;40.20;;;16.50;;
48765;SDS011;65794;51.836;5.002;2023-01-24T07:56:29;43.97;;;16.80;;
48765;SDS011;65794;51.836;5.002;2023-01-24T07:58:57;38.47;;;17.05;;
48765;SDS011;65794;51.836;5.002;2023-01-24T08:01:24;41.00;;;16.15;;
48765;SDS011;65794;51.836;5.002;2023-01-24T08:03:57;40.33;;;17.27;;
48765;SDS011;65794;51.836;5.002;2023-01-24T08:06:25;37.15;;;15.25;;
48765;SDS011;65794;51.836;5.002;2023-01-24T08:08:52;41.42;;;16.27;;
48765;SDS011;65794;51.836;5.002;2023-01-24T08:11:19;38.00;;;15.82;;
48765;SDS011;65794;51.836;5.002;2023-01-24T08:13:46;37.67;;;15.20;;
48765;SDS011;65794;51.836;5.002;2023-01-24T08:16:13;38.50;;;16.00;;
48765;SDS011;65794;51.836;5.002;2023-01-24T08:18:40;34.65;;;14.90;;
48765;SDS011;65794;51.836;5.002;2023-01-24T08:21:07;42.83;;;16.25;;
48765;SDS011;65794;51.836;5.002;2023-01-24T08:23:34;36.88;;;15.32;;
48765;SDS011;65794;51.836;5.002;2023-01-24T08:26:02;43.95;;;16.55;;
48765;SDS011;65794;51.836;5.002;2023-01-24T08:28:29;39.78;;;15.98;;
48765;SDS011;65794;51.836;5.002;2023-01-24T08:30:57;38.53;;;16.23;;
48765;SDS011;65794;51.836;5.002;2023-01-24T08:33:25;39.67;;;17.40;;
48765;SDS011;65794;51.836;5.002;2023-01-24T08:35:52;40.95;;;16.38;;
48765;SDS011;65794;51.836;5.002;2023-01-24T08:38:19;37.92;;;15.80;;
48765;SDS011;65794;51.836;5.002;2023-01-24T08:40:46;35.47;;;15.07;;
48765;SDS011;65794;51.836;5.002;2023-01-24T08:43:16;39.83;;;16.27;;
48765;SDS011;65794;51.836;5.002;2023-01-24T08:45:44;39.97;;;16.33;;
48765;SDS011;65794;51.836;5.002;2023-01-24T08:48:11;37.80;;;15.63;;
48765;SDS011;65794;51.836;5.002;2023-01-24T08:50:38;39.70;;;16.42;;
48765;SDS011;65794;51.836;5.002;2023-01-24T08:53:05;31.95;;;12.73;;
48765;SDS011;65794;51.836;5.002;2023-01-24T08:55:32;37.17;;;14.85;;
48765;SDS011;65794;51.836;5.002;2023-01-24T08:57:59;37.15;;;15.57;;
48765;SDS011;65794;51.836;5.002;2023-01-24T09:00:27;37.33;;;15.40;;
48765;SDS011;65794;51.836;5.002;2023-01-24T09:02:54;40.10;;;15.93;;
48765;SDS011;65794;51.836;5.002;2023-01-24T09:05:21;37.30;;;16.23;;
48765;SDS011;65794;51.836;5.002;2023-01-24T09:07:49;44.67;;;16.95;;
48765;SDS011;65794;51.836;5.002;2023-01-24T09:10:16;36.20;;;15.43;;
48765;SDS011;65794;51.836;5.002;2023-01-24T09:12:43;39.90;;;16.40;;
48765;SDS011;65794;51.836;5.002;2023-01-24T09:15:10;40.92;;;16.77;;
48765;SDS011;65794;51.836;5.002;2023-01-24T09:17:37;39.33;;;15.90;;
48765;SDS011;65794;51.836;5.002;2023-01-24T09:20:06;44.17;;;16.05;;
48765;SDS011;65794;51.836;5.002;2023-01-24T09:22:33;40.22;;;16.33;;
48765;SDS011;65794;51.836;5.002;2023-01-24T09:25:00;39.55;;;17.52;;
48765;SDS011;65794;51.836;5.002;2023-01-24T09:27:28;39.33;;;16.80;;
48765;SDS011;65794;51.836;5.002;2023-01-24T09:29:55;42.78;;;17.95;;
48765;SDS011;65794;51.836;5.002;2023-01-24T09:32:22;37.70;;;18.17;;
48765;SDS011;65794;51.836;5.002;2023-01-24T09:34:49;45.60;;;18.58;;
48765;SDS011;65794;51.836;5.002;2023-01-24T09:37:17;49.38;;;19.00;;
48765;SDS011;65794;51.836;5.002;2023-01-24T09:39:44;45.72;;;18.77;;
48765;SDS011;65794;51.836;5.002;2023-01-24T09:47:25;42.55;;;17.42;;
48765;SDS011;65794;51.836;5.002;2023-01-24T09:49:55;43.42;;;18.30;;
48765;SDS011;65794;51.836;5.002;2023-01-24T09:52:27;40.70;;;17.33;;
48765;SDS011;65794;51.836;5.002;2023-01-24T09:55:13;42.47;;;17.63;;
48765;SDS011;65794;51.836;5.002;2023-01-24T09:57:51;42.50;;;17.50;;
48765;SDS011;65794;51.836;5.002;2023-01-24T10:00:25;40.03;;;17.20;;
48765;SDS011;65794;51.836;5.002;2023-01-24T10:02:56;44.80;;;18.73;;
48765;SDS011;65794;51.836;5.002;2023-01-24T10:05:46;43.22;;;17.13;;
48765;SDS011;65794;51.836;5.002;2023-01-24T10:10:41;44.08;;;18.00;;
48765;SDS011;65794;51.836;5.002;2023-01-24T10:15:44;42.70;;;18.60;;
48765;SDS011;65794;51.836;5.002;2023-01-24T10:18:25;43.90;;;17.80;;
48765;SDS011;65794;51.836;5.002;2023-01-24T10:23:55;38.60;;;16.25;;
48765;SDS011;65794;51.836;5.002;2023-01-24T10:28:58;41.03;;;18.55;;
48765;SDS011;65794;51.836;5.002;2023-01-24T10:31:27;37.25;;;16.17;;
48765;SDS011;65794;51.836;5.002;2023-01-24T10:37:03;43.80;;;18.77;;
48765;SDS011;65794;51.836;5.002;2023-01-24T10:39:32;41.85;;;18.98;;
48765;SDS011;65794;51.836;5.002;2023-01-24T10:41:59;42.70;;;17.95;;
48765;SDS011;65794;51.836;5.002;2023-01-24T10:44:30;44.45;;;17.98;;
48765;SDS011;65794;51.836;5.002;2023-01-24T10:47:13;38.70;;;17.52;;
48765;SDS011;65794;51.836;5.002;2023-01-24T10:49:44;43.30;;;18.15;;
48765;SDS011;65794;51.836;5.002;2023-01-24T10:52:20;45.40;;;19.00;;
48765;SDS011;65794;51.836;5.002;2023-01-24T10:57:36;44.47;;;19.38;;
48765;SDS011;65794;51.836;5.002;2023-01-24T11:02:41;40.50;;;18.35;;
48765;SDS011;65794;51.836;5.002;2023-01-24T11:05:12;44.05;;;18.70;;
48765;SDS011;65794;51.836;5.002;2023-01-24T11:07:44;45.05;;;19.08;;
48765;SDS011;65794;51.836;5.002;2023-01-24T11:15:18;40.72;;;18.75;;
48765;SDS011;65794;51.836;5.002;2023-01-24T11:17:46;42.85;;;17.77;;
48765;SDS011;65794;51.836;5.002;2023-01-24T11:22:43;45.45;;;18.48;;
48765;SDS011;65794;51.836;5.002;2023-01-24T11:25:15;42.38;;;17.92;;
48765;SDS011;65794;51.836;5.002;2023-01-24T11:27:49;43.53;;;18.88;;
48765;SDS011;65794;51.836;5.002;2023-01-24T11:30:17;40.55;;;17.70;;
48765;SDS011;65794;51.836;5.002;2023-01-24T11:33:20;42.47;;;19.02;;
48765;SDS011;65794;51.836;5.002;2023-01-24T11:35:45;40.83;;;18.00;;
48765;SDS011;65794;51.836;5.002;2023-01-24T11:38:21;43.65;;;18.58;;
48765;SDS011;65794;51.836;5.002;2023-01-24T11:48:59;40.20;;;17.15;;
48765;SDS011;65794;51.836;5.002;2023-01-24T11:51:36;43.55;;;18.15;;
48765;SDS011;65794;51.836;5.002;2023-01-24T11:56:53;41.67;;;18.35;;
48765;SDS011;65794;51.836;5.002;2023-01-24T11:59:39;42.90;;;18.20;;
48765;SDS011;65794;51.836;5.002;2023-01-24T12:09:54;38.45;;;16.65;;
48765;SDS011;65794;51.836;5.002;2023-01-24T12:15:08;39.15;;;18.13;;
48765;SDS011;65794;51.836;5.002;2023-01-24T12:17:45;39.42;;;17.27;;
48765;SDS011;65794;51.836;5.002;2023-01-24T12:22:58;41.13;;;17.67;;
48765;SDS011;65794;51.836;5.002;2023-01-24T12:25:29;41.15;;;17.17;;
48765;SDS011;65794;51.836;5.002;2023-01-24T12:28:00;42.03;;;17.58;;
48765;SDS011;65794;51.836;5.002;2023-01-24T12:30:29;40.20;;;17.23;;
48765;SDS011;65794;51.836;5.002;2023-01-24T12:35:54;40.13;;;17.05;;
48765;SDS011;65794;51.836;5.002;2023-01-24T12:43:26;40.45;;;16.95;;
48765;SDS011;65794;51.836;5.002;2023-01-24T12:45:59;41.40;;;17.02;;
48765;SDS011;65794;51.836;5.002;2023-01-24T12:55:54;39.55;;;17.05;;
48765;SDS011;65794;51.836;5.002;2023-01-24T13:09:00;36.50;;;16.35;;
48765;SDS011;65794;51.836;5.002;2023-01-24T13:11:29;40.90;;;17.67;;
48765;SDS011;65794;51.836;5.002;2023-01-24T13:14:06;38.38;;;16.67;;
48765;SDS011;65794;51.836;5.002;2023-01-24T13:25:04;37.67;;;16.67;;
48765;SDS011;65794;51.836;5.002;2023-01-24T13:32:37;40.25;;;15.88;;
48765;SDS011;65794;51.836;5.002;2023-01-24T13:35:16;42.10;;;18.05;;
48765;SDS011;65794;51.836;5.002;2023-01-24T13:38:00;38.22;;;16.40;;
48765;SDS011;65794;51.836;5.002;2023-01-24T13:40:28;32.85;;;15.95;;
48765;SDS011;65794;51.836;5.002;2023-01-24T13:42:57;39.80;;;17.65;;
48765;SDS011;65794;51.836;5.002;2023-01-24T13:48:42;44.20;;;17.75;;
48765;SDS011;65794;51.836;5.002;2023-01-24T13:53:39;40.85;;;16.65;;
48765;SDS011;65794;51.836;5.002;2023-01-24T13:56:08;37.03;;;16.63;;
48765;SDS011;65794;51.836;5.002;2023-01-24T13:58:35;40.45;;;17.92;;
48765;SDS011;65794;51.836;5.002;2023-01-24T14:01:03;38.35;;;17.20;;
48765;SDS011;65794;51.836;5.002;2023-01-24T14:21:14;36.65;;;17.20;;
48765;SDS011;65794;51.836;5.002;2023-01-24T14:23:42;40.75;;;16.63;;
48765;SDS011;65794;51.836;5.002;2023-01-24T14:26:15;35.55;;;16.08;;
48765;SDS011;65794;51.836;5.002;2023-01-24T14:28:45;40.80;;;17.52;;
48765;SDS011;65794;51.836;5.002;2023-01-24T14:36:34;37.17;;;16.75;;
48765;SDS011;65794;51.836;5.002;2023-01-24T14:41:45;36.40;;;15.05;;
48765;SDS011;65794;51.836;5.002;2023-01-24T14:44:16;35.80;;;16.38;;
48765;SDS011;65794;51.836;5.002;2023-01-24T14:46:50;35.47;;;15.32;;
48765;SDS011;65794;51.836;5.002;2023-01-24T14:49:52;39.88;;;15.57;;
48765;SDS011;65794;51.836;5.002;2023-01-24T14:52:15;34.30;;;15.40;;
48765;SDS011;65794;51.836;5.002;2023-01-24T14:54:48;38.00;;;16.02;;
48765;SDS011;65794;51.836;5.002;2023-01-24T14:57:20;33.80;;;16.45;;
48765;SDS011;65794;51.836;5.002;2023-01-24T15:00:01;34.47;;;15.77;;
48765;SDS011;65794;51.836;5.002;2023-01-24T15:02:28;31.63;;;15.38;;
48765;SDS011;65794;51.836;5.002;2023-01-24T15:04:55;34.08;;;15.13;;
48765;SDS011;65794;51.836;5.002;2023-01-24T15:07:22;37.53;;;17.58;;
48765;SDS011;65794;51.836;5.002;2023-01-24T15:09:49;40.53;;;18.17;;
48765;SDS011;65794;51.836;5.002;2023-01-24T15:12:24;35.97;;;16.05;;
48765;SDS011;65794;51.836;5.002;2023-01-24T15:14:52;37.17;;;15.05;;
48765;SDS011;65794;51.836;5.002;2023-01-24T15:17:21;35.30;;;15.15;;
48765;SDS011;65794;51.836;5.002;2023-01-24T15:19:49;36.28;;;16.23;;
48765;SDS011;65794;51.836;5.002;2023-01-24T15:22:19;31.15;;;13.68;;
48765;SDS011;65794;51.836;5.002;2023-01-24T15:24:57;33.15;;;15.20;;
48765;SDS011;65794;51.836;5.002;2023-01-24T15:32:45;29.75;;;13.32;;
48765;SDS011;65794;51.836;5.002;2023-01-24T15:37:39;35.30;;;15.27;;
48765;SDS011;65794;51.836;5.002;2023-01-24T15:40:12;32.35;;;13.70;;
48765;SDS011;65794;51.836;5.002;2023-01-24T15:42:42;30.85;;;13.98;;
48765;SDS011;65794;51.836;5.002;2023-01-24T15:45:28;32.03;;;13.27;;
48765;SDS011;65794;51.836;5.002;2023-01-24T15:48:05;27.35;;;13.65;;
48765;SDS011;65794;51.836;5.002;2023-01-24T15:50:32;36.30;;;14.43;;
48765;SDS011;65794;51.836;5.002;2023-01-24T15:55:49;32.33;;;14.55;;
48765;SDS011;65794;51.836;5.002;2023-01-24T15:58:16;34.40;;;15.02;;
48765;SDS011;65794;51.836;5.002;2023-01-24T16:00:53;30.48;;;13.60;;
48765;SDS011;65794;51.836;5.002;2023-01-24T16:03:20;28.13;;;13.05;;
48765;SDS011;65794;51.836;5.002;2023-01-24T16:05:49;30.92;;;13.63;;
48765;SDS011;65794;51.836;5.002;2023-01-24T16:08:16;32.75;;;14.15;;
48765;SDS011;65794;51.836;5.002;2023-01-24T16:10:43;31.05;;;13.20;;
48765;SDS011;65794;51.836;5.002;2023-01-24T16:13:30;30.90;;;12.32;;
48765;SDS011;65794;51.836;5.002;2023-01-24T16:15:58;25.92;;;12.27;;
48765;SDS011;65794;51.836;5.002;2023-01-24T16:18:25;28.15;;;13.68;;
48765;SDS011;65794;51.836;5.002;2023-01-24T16:20:53;30.83;;;14.07;;
48765;SDS011;65794;51.836;5.002;2023-01-24T16:23:19;31.70;;;12.50;;
48765;SDS011;65794;51.836;5.002;2023-01-24T16:25:48;29.33;;;13.15;;
48765;SDS011;65794;51.836;5.002;2023-01-24T16:28:25;28.17;;;13.35;;
48765;SDS011;65794;51.836;5.002;2023-01-24T16:30:53;30.15;;;13.50;;
48765;SDS011;65794;51.836;5.002;2023-01-24T16:33:21;26.77;;;12.85;;
48765;SDS011;65794;51.836;5.002;2023-01-24T16:35:48;27.13;;;12.88;;
48765;SDS011;65794;51.836;5.002;2023-01-24T16:38:15;30.58;;;13.07;;
48765;SDS011;65794;51.836;5.002;2023-01-24T16:40:42;32.80;;;13.98;;
48765;SDS011;65794;51.836;5.002;2023-01-24T16:43:27;29.20;;;13.55;;
48765;SDS011;65794;51.836;5.002;2023-01-24T16:45:55;29.10;;;13.23;;
48765;SDS011;65794;51.836;5.002;2023-01-24T16:48:23;30.40;;;14.73;;
48765;SDS011;65794;51.836;5.002;2023-01-24T16:50:50;32.75;;;13.82;;
48765;SDS011;65794;51.836;5.002;2023-01-24T16:53:17;34.70;;;14.90;;
48765;SDS011;65794;51.836;5.002;2023-01-24T16:55:44;29.88;;;12.63;;
48765;SDS011;65794;51.836;5.002;2023-01-24T16:58:20;31.10;;;14.40;;
48765;SDS011;65794;51.836;5.002;2023-01-24T17:00:47;35.05;;;15.50;;
48765;SDS011;65794;51.836;5.002;2023-01-24T17:03:15;30.05;;;12.70;;